sensor_id;sensor_type;location;lat;lon;timestamp;pressure;altitude;pressure_sealevel;temperature;humidity
44127;BME280;29786;50.798;7.302;2023-04-26T00:03:37;99430;;;3.74;100
44127;BME280;29786;50.798;7.302;2023-04-26T00:08:34;99430;;;3.8;100
44127;BME280;29786;50.798;7.302;2023-04-26T00:13:30;99440;;;3.88;100
44127;BME280;29786;50.798;7.302;2023-04-26T00:18:27;99440;;;4.03;100
44127;BME280;29786;50.798;7.302;2023-04-26T00:24:38;99440;;;4.07;100
44127;BME280;29786;50.798;7.302;2023-04-26T00:29:35;99430;;;3.93;100
44127;BME280;29786;50.798;7.302;2023-04-26T00:34:31;99420;;;3.73;100
44127;BME280;29786;50.798;7.302;2023-04-26T00:39:27;99420;;;3.61;100
44127;BME280;29786;50.798;7.302;2023-04-26T00:45:38;99420;;;3.55;100
44127;BME280;29786;50.798;7.302;2023-04-26T00:50:35;99410;;;3.7;100
44127;BME280;29786;50.798;7.302;2023-04-26T00:55:31;99410;;;3.91;100
44127;BME280;29786;50.798;7.302;2023-04-26T01:00:28;99410;;;4.02;100
44127;BME280;29786;50.798;7.302;2023-04-26T01:06:38;99410;;;3.63;100
44127;BME280;29786;50.798;7.302;2023-04-26T01:11:35;99420;;;3.46;100
44127;BME280;29786;50.798;7.302;2023-04-26T01:16:31;99420;;;3.69;100
44127;BME280;29786;50.798;7.302;2023-04-26T01:21:28;99430;;;3.58;100
44127;BME280;29786;50.798;7.302;2023-04-26T01:27:38;99430;;;3.21;100
44127;BME280;29786;50.798;7.302;2023-04-26T01:32:35;99430;;;3.35;100
44127;BME280;29786;50.798;7.302;2023-04-26T01:37:31;99410;;;3.12;100
44127;BME280;29786;50.798;7.302;2023-04-26T01:42:28;99420;;;3.14;100
44127;BME280;29786;50.798;7.302;2023-04-26T01:47:25;99430;;;3.02;100
44127;BME280;29786;50.798;7.302;2023-04-26T01:53:35;99430;;;3.07;100
44127;BME280;29786;50.798;7.302;2023-04-26T01:58:32;99410;;;2.62;100
44127;BME280;29786;50.798;7.302;2023-04-26T02:03:28;99430;;;2.77;100
44127;BME280;29786;50.798;7.302;2023-04-26T02:08:25;99410;;;2.7;100
44127;BME280;29786;50.798;7.302;2023-04-26T02:14:35;99420;;;2.76;100
44127;BME280;29786;50.798;7.302;2023-04-26T02:19:32;99420;;;2.62;100
44127;BME280;29786;50.798;7.302;2023-04-26T02:24:29;99420;;;2.66;100
44127;BME280;29786;50.798;7.302;2023-04-26T02:29:25;99420;;;2.43;100
44127;BME280;29786;50.798;7.302;2023-04-26T02:33:07;99420;;;2.38;100
44127;BME280;29786;50.798;7.302;2023-04-26T02:35:36;99420;;;2.41;100
44127;BME280;29786;50.798;7.302;2023-04-26T02:40:32;99420;;;2.31;100
44127;BME280;29786;50.798;7.302;2023-04-26T02:45:29;99420;;;2.4;100
44127;BME280;29786;50.798;7.302;2023-04-26T02:56:36;99410;;;2.3;100
44127;BME280;29786;50.798;7.302;2023-04-26T03:01:33;99410;;;2.33;100
44127;BME280;29786;50.798;7.302;2023-04-26T03:06:29;99420;;;2.56;100
44127;BME280;29786;50.798;7.302;2023-04-26T03:11:26;99420;;;2.72;100
44127;BME280;29786;50.798;7.302;2023-04-26T03:17:36;99420;;;2.45;100
44127;BME280;29786;50.798;7.302;2023-04-26T03:22:33;99410;;;2.59;100
44127;BME280;29786;50.798;7.302;2023-04-26T03:27:29;99410;;;2.75;100
44127;BME280;29786;50.798;7.302;2023-04-26T03:32:26;99410;;;2.78;100
44127;BME280;29786;50.798;7.302;2023-04-26T03:38:37;99410;;;2.75;100
44127;BME280;29786;50.798;7.302;2023-04-26T03:43:33;99410;;;2.9;100
44127;BME280;29786;50.798;7.302;2023-04-26T03:48:30;99410;;;2.68;100
44127;BME280;29786;50.798;7.302;2023-04-26T03:53:26;99400;;;2.58;100
44127;BME280;29786;50.798;7.302;2023-04-26T03:59:37;99410;;;2.63;100
44127;BME280;29786;50.798;7.302;2023-04-26T04:04:33;99410;;;2.6;100
44127;BME280;29786;50.798;7.302;2023-04-26T04:09:30;99410;;;2.58;100
44127;BME280;29786;50.798;7.302;2023-04-26T04:20:37;99410;;;2.25;100
44127;BME280;29786;50.798;7.302;2023-04-26T04:25:34;99400;;;2.28;100
44127;BME280;29786;50.798;7.302;2023-04-26T04:30:30;99410;;;2.14;100
44127;BME280;29786;50.798;7.302;2023-04-26T04:35:28;99410;;;1.94;100
44127;BME280;29786;50.798;7.302;2023-04-26T04:41:37;99430;;;2;100
44127;BME280;29786;50.798;7.302;2023-04-26T04:46:34;99430;;;2.08;100
44127;BME280;29786;50.798;7.302;2023-04-26T04:51:30;99430;;;2.54;100
44127;BME280;29786;50.798;7.302;2023-04-26T04:56:27;99430;;;2.58;100
44127;BME280;29786;50.798;7.302;2023-04-26T05:02:38;99440;;;2.76;100
44127;BME280;29786;50.798;7.302;2023-04-26T05:07:34;99440;;;2.7;100
44127;BME280;29786;50.798;7.302;2023-04-26T05:12:31;99440;;;2.9;100
44127;BME280;29786;50.798;7.302;2023-04-26T05:17:27;99460;;;3.25;100
44127;BME280;29786;50.798;7.302;2023-04-26T05:23:38;99460;;;3.4;100
44127;BME280;29786;50.798;7.302;2023-04-26T05:28:34;99460;;;3.47;100
44127;BME280;29786;50.798;7.302;2023-04-26T05:33:31;99460;;;3.45;100
44127;BME280;29786;50.798;7.302;2023-04-26T05:38:27;99470;;;3.33;100
44127;BME280;29786;50.798;7.302;2023-04-26T05:43:24;99480;;;3.35;100
44127;BME280;29786;50.798;7.302;2023-04-26T05:49:35;99480;;;3.73;100
44127;BME280;29786;50.798;7.302;2023-04-26T05:54:31;99470;;;3.8;100
44127;BME280;29786;50.798;7.302;2023-04-26T05:59:28;99480;;;3.71;100
44127;BME280;29786;50.798;7.302;2023-04-26T06:05:38;99480;;;3.81;100
44127;BME280;29786;50.798;7.302;2023-04-26T06:10:35;99490;;;3.96;100
44127;BME280;29786;50.798;7.302;2023-04-26T06:15:31;99470;;;4;100
44127;BME280;29786;50.798;7.302;2023-04-26T06:20:28;99490;;;4.31;100
44127;BME280;29786;50.798;7.302;2023-04-26T06:26:39;99490;;;4.48;100
44127;BME280;29786;50.798;7.302;2023-04-26T06:31:35;99500;;;4.76;100
44127;BME280;29786;50.798;7.302;2023-04-26T06:36:32;99490;;;4.56;100
44127;BME280;29786;50.798;7.302;2023-04-26T06:41:28;99510;;;4.85;100
44127;BME280;29786;50.798;7.302;2023-04-26T06:46:25;99510;;;5.08;100
44127;BME280;29786;50.798;7.302;2023-04-26T06:52:35;99510;;;5.63;100
44127;BME280;29786;50.798;7.302;2023-04-26T06:57:32;99520;;;5.63;100
44127;BME280;29786;50.798;7.302;2023-04-26T07:02:29;99520;;;5.63;100
44127;BME280;29786;50.798;7.302;2023-04-26T07:07:25;99520;;;5.69;100
44127;BME280;29786;50.798;7.302;2023-04-26T07:13:36;99520;;;6.01;100
44127;BME280;29786;50.798;7.302;2023-04-26T07:18:33;99520;;;6.41;100
44127;BME280;29786;50.798;7.302;2023-04-26T07:23:29;99510;;;6.53;100
44127;BME280;29786;50.798;7.302;2023-04-26T07:34:36;99510;;;7.43;99.46
44127;BME280;29786;50.798;7.302;2023-04-26T07:39:33;99510;;;7.29;99.96
44127;BME280;29786;50.798;7.302;2023-04-26T07:44:29;99510;;;7.63;99.59
44127;BME280;29786;50.798;7.302;2023-04-26T07:49:26;99510;;;8.68;93.7
44127;BME280;29786;50.798;7.302;2023-04-26T07:55:36;99510;;;8.59;88.1
44127;BME280;29786;50.798;7.302;2023-04-26T08:00:33;99510;;;8.79;79.83
44127;BME280;29786;50.798;7.302;2023-04-26T08:05:29;99510;;;8.87;84.87
44127;BME280;29786;50.798;7.302;2023-04-26T08:10:26;99520;;;8.43;82.38
44127;BME280;29786;50.798;7.302;2023-04-26T08:16:37;99520;;;8.57;82.56
44127;BME280;29786;50.798;7.302;2023-04-26T08:21:33;99510;;;8.25;79.95
44127;BME280;29786;50.798;7.302;2023-04-26T08:26:30;99510;;;8.32;80.5
44127;BME280;29786;50.798;7.302;2023-04-26T08:37:37;99520;;;8.1;84.95
44127;BME280;29786;50.798;7.302;2023-04-26T08:42:33;99510;;;8.13;79.02
44127;BME280;29786;50.798;7.302;2023-04-26T08:47:39;99510;;;8.67;80.03
44127;BME280;29786;50.798;7.302;2023-04-26T08:58:37;99510;;;8.71;70.28
44127;BME280;29786;50.798;7.302;2023-04-26T09:03:34;99510;;;9.43;63.96
44127;BME280;29786;50.798;7.302;2023-04-26T09:08:30;99510;;;8.72;63.92
44127;BME280;29786;50.798;7.302;2023-04-26T09:13:27;99500;;;9.25;62.96
44127;BME280;29786;50.798;7.302;2023-04-26T09:19:38;99500;;;9.18;62.79
44127;BME280;29786;50.798;7.302;2023-04-26T09:24:45;99510;;;9.74;57.47
44127;BME280;29786;50.798;7.302;2023-04-26T09:29:30;99510;;;8.85;65.58
44127;BME280;29786;50.798;7.302;2023-04-26T09:34:27;99510;;;9.43;63.22
44127;BME280;29786;50.798;7.302;2023-04-26T09:40:39;99500;;;10.89;57.88
44127;BME280;29786;50.798;7.302;2023-04-26T09:45:43;99500;;;11.48;53.6
44127;BME280;29786;50.798;7.302;2023-04-26T09:50:31;99490;;;11.28;50.63
44127;BME280;29786;50.798;7.302;2023-04-26T09:55:28;99490;;;9.87;52.73
44127;BME280;29786;50.798;7.302;2023-04-26T09:56:41;99490;;;9.57;53.73
44127;BME280;29786;50.798;7.302;2023-04-26T10:06:35;99480;;;10.77;50.93
44127;BME280;29786;50.798;7.302;2023-04-26T10:11:32;99470;;;10.76;50.05
44127;BME280;29786;50.798;7.302;2023-04-26T10:16:27;99470;;;10.67;50.26
44127;BME280;29786;50.798;7.302;2023-04-26T10:22:39;99470;;;10.22;50.08
44127;BME280;29786;50.798;7.302;2023-04-26T10:27:47;99470;;;9.74;51.93
44127;BME280;29786;50.798;7.302;2023-04-26T10:32:31;99450;;;10.82;50.29
44127;BME280;29786;50.798;7.302;2023-04-26T10:37:28;99470;;;10.6;49.57
44127;BME280;29786;50.798;7.302;2023-04-26T10:42:25;99460;;;11.09;50.09
44127;BME280;29786;50.798;7.302;2023-04-26T10:48:35;99450;;;13.07;47.05
44127;BME280;29786;50.798;7.302;2023-04-26T10:53:33;99430;;;14.22;41.68
44127;BME280;29786;50.798;7.302;2023-04-26T10:58:29;99440;;;13.45;40.59
44127;BME280;29786;50.798;7.302;2023-04-26T11:03:25;99440;;;13.14;41.38
44127;BME280;29786;50.798;7.302;2023-04-26T11:09:37;99430;;;13.05;40.42
44127;BME280;29786;50.798;7.302;2023-04-26T11:14:32;99420;;;11.29;46.43
44127;BME280;29786;50.798;7.302;2023-04-26T11:19:28;99430;;;11.78;47.45
44127;BME280;29786;50.798;7.302;2023-04-26T11:24:26;99440;;;12.68;47.44
44127;BME280;29786;50.798;7.302;2023-04-26T11:30:35;99430;;;13.96;44.2
44127;BME280;29786;50.798;7.302;2023-04-26T11:35:33;99430;;;14.07;42.47
44127;BME280;29786;50.798;7.302;2023-04-26T11:40:29;99430;;;12.77;45.41
44127;BME280;29786;50.798;7.302;2023-04-26T11:45:25;99420;;;12.24;46.16
44127;BME280;29786;50.798;7.302;2023-04-26T11:51:36;99420;;;14;46.14
44127;BME280;29786;50.798;7.302;2023-04-26T11:56:32;99400;;;16.78;38.87
44127;BME280;29786;50.798;7.302;2023-04-26T12:01:29;99400;;;17.48;37.62
44127;BME280;29786;50.798;7.302;2023-04-26T12:12:36;99400;;;17.27;36.87
44127;BME280;29786;50.798;7.302;2023-04-26T12:17:33;99410;;;15.35;37.03
44127;BME280;29786;50.798;7.302;2023-04-26T12:22:29;99420;;;15.14;38.21
44127;BME280;29786;50.798;7.302;2023-04-26T12:27:26;99410;;;16.12;36.98
44127;BME280;29786;50.798;7.302;2023-04-26T12:33:36;99410;;;17.26;36.82
44127;BME280;29786;50.798;7.302;2023-04-26T12:38:33;99400;;;17.32;35.17
44127;BME280;29786;50.798;7.302;2023-04-26T12:43:29;99400;;;19.14;33.28
44127;BME280;29786;50.798;7.302;2023-04-26T12:48:26;99400;;;16.74;37.89
44127;BME280;29786;50.798;7.302;2023-04-26T12:54:36;99400;;;17.16;34.4
44127;BME280;29786;50.798;7.302;2023-04-26T12:59:33;99400;;;16.37;34.18
44127;BME280;29786;50.798;7.302;2023-04-26T13:04:30;99390;;;16.99;32.8
44127;BME280;29786;50.798;7.302;2023-04-26T13:09:26;99390;;;16.56;33.87
44127;BME280;29786;50.798;7.302;2023-04-26T13:15:37;99390;;;15.21;36.81
44127;BME280;29786;50.798;7.302;2023-04-26T13:20:33;99390;;;14.38;37.61
44127;BME280;29786;50.798;7.302;2023-04-26T13:25:30;99380;;;15.78;38.01
44127;BME280;29786;50.798;7.302;2023-04-26T13:36:38;99370;;;19.48;33.47
44127;BME280;29786;50.798;7.302;2023-04-26T13:41:34;99360;;;21.2;27.87
44127;BME280;29786;50.798;7.302;2023-04-26T13:46:30;99370;;;19.01;29.45
44127;BME280;29786;50.798;7.302;2023-04-26T13:51:27;99360;;;22.96;28.94
44127;BME280;29786;50.798;7.302;2023-04-26T13:57:37;99350;;;20.59;30.72
44127;BME280;29786;50.798;7.302;2023-04-26T14:02:34;99360;;;18.34;30.57
44127;BME280;29786;50.798;7.302;2023-04-26T14:07:30;99350;;;20.2;29.74
44127;BME280;29786;50.798;7.302;2023-04-26T14:12:27;99340;;;20.68;30.54
44127;BME280;29786;50.798;7.302;2023-04-26T14:18:38;99340;;;22.77;29.79
44127;BME280;29786;50.798;7.302;2023-04-26T14:23:34;99330;;;22.75;26.93
44127;BME280;29786;50.798;7.302;2023-04-26T14:28:31;99330;;;23.65;25.66
44127;BME280;29786;50.798;7.302;2023-04-26T14:33:27;99330;;;25.13;25.94
44127;BME280;29786;50.798;7.302;2023-04-26T14:39:38;99320;;;25.7;24.41
44127;BME280;29786;50.798;7.302;2023-04-26T14:44:34;99320;;;25.81;25.78
44127;BME280;29786;50.798;7.302;2023-04-26T14:49:31;99330;;;20.52;29.3
44127;BME280;29786;50.798;7.302;2023-04-26T14:54:27;99320;;;22.55;26.88
44127;BME280;29786;50.798;7.302;2023-04-26T15:00:38;99320;;;23.4;27.31
44127;BME280;29786;50.798;7.302;2023-04-26T15:05:35;99320;;;25.04;25.14
44127;BME280;29786;50.798;7.302;2023-04-26T15:08:03;99320;;;24.65;24.94
44127;BME280;29786;50.798;7.302;2023-04-26T15:10:31;99300;;;25.85;22.65
44127;BME280;29786;50.798;7.302;2023-04-26T15:15:28;99310;;;25.03;25.09
44127;BME280;29786;50.798;7.302;2023-04-26T15:20:24;99310;;;20.26;29.25
44127;BME280;29786;50.798;7.302;2023-04-26T15:26:35;99320;;;19.01;29.24
44127;BME280;29786;50.798;7.302;2023-04-26T15:31:32;99290;;;21.99;26.7
44127;BME280;29786;50.798;7.302;2023-04-26T15:36:28;99300;;;24.22;26.42
44127;BME280;29786;50.798;7.302;2023-04-26T15:41:25;99290;;;24.85;26.3
44127;BME280;29786;50.798;7.302;2023-04-26T15:47:35;99300;;;20.34;27.49
44127;BME280;29786;50.798;7.302;2023-04-26T15:52:32;99280;;;17.87;30.64
44127;BME280;29786;50.798;7.302;2023-04-26T15:57:28;99310;;;17.7;31.34
44127;BME280;29786;50.798;7.302;2023-04-26T16:02:25;99310;;;16.23;33.78
44127;BME280;29786;50.798;7.302;2023-04-26T16:08:36;99310;;;16.48;33.33
44127;BME280;29786;50.798;7.302;2023-04-26T16:13:32;99290;;;19.51;31.34
44127;BME280;29786;50.798;7.302;2023-04-26T16:18:29;99300;;;22.22;26.95
44127;BME280;29786;50.798;7.302;2023-04-26T16:23:25;99300;;;24.18;25.12
44127;BME280;29786;50.798;7.302;2023-04-26T16:29:36;99300;;;24.24;25.36
44127;BME280;29786;50.798;7.302;2023-04-26T16:34:32;99300;;;23.44;25.19
44127;BME280;29786;50.798;7.302;2023-04-26T16:39:29;99300;;;19.74;29.59
44127;BME280;29786;50.798;7.302;2023-04-26T16:44:25;99300;;;19.51;29.84
44127;BME280;29786;50.798;7.302;2023-04-26T16:50:36;99300;;;16.01;33.97
44127;BME280;29786;50.798;7.302;2023-04-26T16:54:27;99300;;;16.75;33.84
44127;BME280;29786;50.798;7.302;2023-04-26T17:00:37;99300;;;19.09;31.15
44127;BME280;29786;50.798;7.302;2023-04-26T17:05:50;99300;;;18.15;30.53
44127;BME280;29786;50.798;7.302;2023-04-26T17:10:31;99300;;;17.82;32.08
44127;BME280;29786;50.798;7.302;2023-04-26T17:15:27;99310;;;18.87;30.5
44127;BME280;29786;50.798;7.302;2023-04-26T17:21:37;99310;;;17.37;31.61
44127;BME280;29786;50.798;7.302;2023-04-26T17:26:34;99310;;;17.07;32.08
44127;BME280;29786;50.798;7.302;2023-04-26T17:31:31;99310;;;17.37;34.52
44127;BME280;29786;50.798;7.302;2023-04-26T17:36:27;99310;;;17.35;33.6
44127;BME280;29786;50.798;7.302;2023-04-26T17:42:38;99310;;;17.68;32.42
44127;BME280;29786;50.798;7.302;2023-04-26T17:47:34;99320;;;15.4;35.45
44127;BME280;29786;50.798;7.302;2023-04-26T17:52:31;99330;;;13.72;38.87
44127;BME280;29786;50.798;7.302;2023-04-26T17:57:27;99340;;;13.51;37.89
44127;BME280;29786;50.798;7.302;2023-04-26T18:03:38;99340;;;13.34;39.25
44127;BME280;29786;50.798;7.302;2023-04-26T18:08:35;99340;;;12.69;41.83
44127;BME280;29786;50.798;7.302;2023-04-26T18:13:31;99350;;;11.76;45.29
44127;BME280;29786;50.798;7.302;2023-04-26T18:18:28;99350;;;11.02;43.19
44127;BME280;29786;50.798;7.302;2023-04-26T18:24:38;99360;;;10.22;46.32
44127;BME280;29786;50.798;7.302;2023-04-26T18:29:35;99360;;;9.88;47.04
44127;BME280;29786;50.798;7.302;2023-04-26T18:34:31;99340;;;9.46;49.59
44127;BME280;29786;50.798;7.302;2023-04-26T18:39:28;99370;;;9.43;49.63
44127;BME280;29786;50.798;7.302;2023-04-26T18:45:39;99380;;;9.22;49.31
44127;BME280;29786;50.798;7.302;2023-04-26T18:50:35;99370;;;8.89;50.73
44127;BME280;29786;50.798;7.302;2023-04-26T18:55:32;99360;;;8.62;51.74
44127;BME280;29786;50.798;7.302;2023-04-26T19:00:28;99390;;;8.68;52
44127;BME280;29786;50.798;7.302;2023-04-26T19:06:39;99390;;;8.67;51.76
44127;BME280;29786;50.798;7.302;2023-04-26T19:11:36;99400;;;8.74;54.63
44127;BME280;29786;50.798;7.302;2023-04-26T19:16:32;99380;;;8.68;51.41
44127;BME280;29786;50.798;7.302;2023-04-26T19:21:28;99400;;;8.91;52.12
44127;BME280;29786;50.798;7.302;2023-04-26T19:26:25;99410;;;8.8;51.41
44127;BME280;29786;50.798;7.302;2023-04-26T19:32:36;99420;;;8.76;52.44
44127;BME280;29786;50.798;7.302;2023-04-26T19:42:29;99420;;;8.62;51.92
44127;BME280;29786;50.798;7.302;2023-04-26T19:47:25;99420;;;8.67;52.77
44127;BME280;29786;50.798;7.302;2023-04-26T19:53:36;99420;;;8.6;54.46
44127;BME280;29786;50.798;7.302;2023-04-26T19:58:32;99420;;;8.62;53.94
44127;BME280;29786;50.798;7.302;2023-04-26T20:03:29;99420;;;8.63;53.84
44127;BME280;29786;50.798;7.302;2023-04-26T20:14:36;99430;;;8.38;54.86
44127;BME280;29786;50.798;7.302;2023-04-26T20:19:33;99440;;;8.47;55.3
44127;BME280;29786;50.798;7.302;2023-04-26T20:24:29;99430;;;8.64;56.31
44127;BME280;29786;50.798;7.302;2023-04-26T20:29:26;99440;;;8.83;55.83
44127;BME280;29786;50.798;7.302;2023-04-26T20:35:36;99440;;;8.56;56.5
44127;BME280;29786;50.798;7.302;2023-04-26T20:40:33;99440;;;8.45;55.19
44127;BME280;29786;50.798;7.302;2023-04-26T20:45:29;99450;;;8.12;57.02
44127;BME280;29786;50.798;7.302;2023-04-26T20:50:26;99440;;;8.06;57.03
44127;BME280;29786;50.798;7.302;2023-04-26T20:56:37;99440;;;8.1;60.16
44127;BME280;29786;50.798;7.302;2023-04-26T21:01:33;99440;;;8.22;59.92
44127;BME280;29786;50.798;7.302;2023-04-26T21:06:30;99440;;;8.1;61.88
44127;BME280;29786;50.798;7.302;2023-04-26T21:11:26;99440;;;8.35;61.05
44127;BME280;29786;50.798;7.302;2023-04-26T21:17:37;99440;;;8.21;60.06
44127;BME280;29786;50.798;7.302;2023-04-26T21:22:33;99440;;;8.22;63.02
44127;BME280;29786;50.798;7.302;2023-04-26T21:27:30;99450;;;8.47;60.12
44127;BME280;29786;50.798;7.302;2023-04-26T21:32:27;99450;;;8.37;60.79
44127;BME280;29786;50.798;7.302;2023-04-26T21:38:37;99450;;;8.46;62
44127;BME280;29786;50.798;7.302;2023-04-26T21:43:34;99460;;;8.21;61.99
44127;BME280;29786;50.798;7.302;2023-04-26T21:48:30;99460;;;8.29;63.16
44127;BME280;29786;50.798;7.302;2023-04-26T21:53:27;99460;;;8.33;63.75
44127;BME280;29786;50.798;7.302;2023-04-26T21:59:37;99460;;;8.03;65.13
44127;BME280;29786;50.798;7.302;2023-04-26T22:04:34;99450;;;7.83;65.53
44127;BME280;29786;50.798;7.302;2023-04-26T22:09:30;99460;;;7.95;66.97
44127;BME280;29786;50.798;7.302;2023-04-26T22:14:27;99460;;;7.86;67.19
44127;BME280;29786;50.798;7.302;2023-04-26T22:20:38;99460;;;7.95;67.4
44127;BME280;29786;50.798;7.302;2023-04-26T22:25:34;99470;;;7.69;67.32
44127;BME280;29786;50.798;7.302;2023-04-26T22:30:31;99470;;;7.7;67.85
44127;BME280;29786;50.798;7.302;2023-04-26T22:35:28;99470;;;7.83;68.34
44127;BME280;29786;50.798;7.302;2023-04-26T22:41:38;99470;;;7.68;69.91
44127;BME280;29786;50.798;7.302;2023-04-26T22:46:35;99470;;;7.54;69.28
44127;BME280;29786;50.798;7.302;2023-04-26T22:51:31;99480;;;7.35;70.52
44127;BME280;29786;50.798;7.302;2023-04-26T22:56:28;99480;;;7.32;72.88
44127;BME280;29786;50.798;7.302;2023-04-26T23:02:38;99480;;;7.67;73.29
44127;BME280;29786;50.798;7.302;2023-04-26T23:07:35;99470;;;7.56;73.96
44127;BME280;29786;50.798;7.302;2023-04-26T23:12:31;99450;;;7.48;73.78
44127;BME280;29786;50.798;7.302;2023-04-26T23:17:28;99470;;;7.4;75.29
44127;BME280;29786;50.798;7.302;2023-04-26T23:23:38;99480;;;7.29;76.78
44127;BME280;29786;50.798;7.302;2023-04-26T23:28:35;99480;;;7.4;76.64
44127;BME280;29786;50.798;7.302;2023-04-26T23:33:32;99460;;;7.37;75.9
44127;BME280;29786;50.798;7.302;2023-04-26T23:38:28;99470;;;7.6;74.7
44127;BME280;29786;50.798;7.302;2023-04-26T23:43:25;99470;;;7.55;74.56
44127;BME280;29786;50.798;7.302;2023-04-26T23:49:35;99480;;;7.55;73.83
44127;BME280;29786;50.798;7.302;2023-04-26T23:54:32;99460;;;7.26;73.62
44127;BME280;29786;50.798;7.302;2023-04-26T23:59:28;99480;;;7.35;72.99
